Time;durP1;ratioP1;P1;durP2;ratioP2;P2;SDS_P1;SDS_P2;PMS_P1;PMS_P2;Temp;Humidity;BMP_temperature;BMP_pressure;BME280_temperature;BME280_humidity;BME280_pressure;Samples;Min_cycle;Max_cycle;Signal;HPM_P1;HPM_P2
2022/09/10 00:00:53;;;;;;;2.58;0.98;;;;;;;27.10;45.98;98527.56;2086296;28;20451;-51
2022/09/10 00:01:54;;;;;;;2.38;1.50;;;;;;;27.08;45.93;98536.00;2084223;28;20527;-51
2022/09/10 00:02:55;;;;;;;3.22;1.00;;;;;;;27.08;46.21;98533.28;2083556;28;20155;-50
2022/09/10 00:03:56;;;;;;;2.97;0.75;;;;;;;27.08;46.23;98527.00;2081881;28;20048;-50
2022/09/10 00:04:59;;;;;;;3.25;1.48;;;;;;;27.08;46.01;98527.00;2083653;28;20052;-48
2022/09/10 00:06:03;;;;;;;2.88;1.20;;;;;;;27.08;46.50;98533.28;2085591;28;20052;-49
2022/09/10 00:07:05;;;;;;;2.80;0.77;;;;;;;27.08;46.32;98532.44;2085401;28;20564;-48
2022/09/10 00:08:06;;;;;;;3.38;1.50;;;;;;;27.08;46.29;98521.56;2085605;28;20041;-50
2022/09/10 00:09:09;;;;;;;3.20;1.30;;;;;;;27.07;46.58;98523.47;2083614;28;21896;-54
2022/09/10 00:10:10;;;;;;;4.10;1.27;;;;;;;27.05;46.18;98524.81;2084843;28;20136;-51
2022/09/10 00:11:13;;;;;;;4.32;0.90;;;;;;;27.04;46.20;98526.72;2084191;28;20055;-50
2022/09/10 00:12:15;;;;;;;3.05;1.45;;;;;;;27.01;46.66;98527.25;2083385;28;20072;-49
2022/09/10 00:13:20;;;;;;;3.35;1.88;;;;;;;27.01;46.67;98529.16;2084627;28;20064;-51
2022/09/10 00:14:23;;;;;;;1.60;1.13;;;;;;;26.98;46.52;98521.50;2085156;28;20117;-50
2022/09/10 00:15:24;;;;;;;4.85;1.08;;;;;;;27.01;46.40;98523.72;2085490;28;20056;-53
2022/09/10 00:16:27;;;;;;;4.50;1.05;;;;;;;27.01;46.82;98529.16;2085368;28;20045;-51
2022/09/10 00:17:27;;;;;;;3.25;1.10;;;;;;;27.01;46.58;98518.25;2085096;28;20136;-50
2022/09/10 00:18:31;;;;;;;3.75;1.17;;;;;;;27.00;46.82;98522.06;2084572;28;20048;-51
2022/09/10 00:19:32;;;;;;;3.78;1.08;;;;;;;27.04;46.41;98528.63;2085717;28;20057;-50
2022/09/10 00:20:33;;;;;;;4.60;0.95;;;;;;;27.04;46.60;98525.91;2083524;28;20049;-52
2022/09/10 00:21:35;;;;;;;1.63;0.77;;;;;;;27.03;46.71;98521.56;2085459;28;20582;-50
2022/09/10 00:22:36;;;;;;;1.70;1.23;;;;;;;27.03;46.53;98518.84;2080760;28;20715;-51
2022/09/10 00:23:38;;;;;;;5.80;1.33;;;;;;;27.02;46.48;98519.91;2081774;28;20060;-50
2022/09/10 00:24:38;;;;;;;5.03;1.38;;;;;;;27.01;46.65;98519.06;2082567;28;20045;-52
2022/09/10 00:25:41;;;;;;;2.50;1.05;;;;;;;27.00;46.58;98528.34;2085105;28;20097;-50
2022/09/10 00:26:42;;;;;;;6.38;2.05;;;;;;;27.02;46.81;98526.16;2084595;28;20048;-50
2022/09/10 00:27:43;;;;;;;5.50;1.30;;;;;;;27.02;46.71;98522.63;2085580;28;20544;-50
2022/09/10 00:28:46;;;;;;;2.97;1.33;;;;;;;27.03;46.54;98521.56;2083342;28;20045;-50
2022/09/10 00:29:51;;;;;;;2.60;1.60;;;;;;;27.04;46.61;98525.91;2085973;28;20068;-48
2022/09/10 00:30:53;;;;;;;3.60;1.10;;;;;;;27.03;46.63;98524.28;2084041;28;20044;-50
2022/09/10 00:31:55;;;;;;;1.83;0.93;;;;;;;27.03;46.43;98527.81;2086064;28;20125;-50
2022/09/10 00:32:56;;;;;;;4.07;1.15;;;;;;;27.02;46.77;98528.06;2087441;28;20474;-52
2022/09/10 00:33:58;;;;;;;1.92;0.90;;;;;;;27.00;46.93;98527.53;2085010;28;20103;-50
2022/09/10 00:35:00;;;;;;;2.92;0.98;;;;;;;27.00;46.74;98517.44;2082809;28;20057;-51
2022/09/10 00:36:04;;;;;;;5.18;1.83;;;;;;;27.02;46.77;98528.06;2085225;28;20048;-50
2022/09/10 00:37:05;;;;;;;2.05;0.93;;;;;;;27.02;46.65;98525.34;2085293;28;20064;-51
2022/09/10 00:38:08;;;;;;;3.00;0.88;;;;;;;27.04;46.60;98520.47;2082387;28;20176;-49
2022/09/10 00:39:11;;;;;;;3.50;1.75;;;;;;;27.03;46.63;98527.00;2086451;28;20044;-52
2022/09/10 00:40:13;;;;;;;4.82;1.08;;;;;;;26.99;47.04;98526.69;2083075;28;20068;-50
2022/09/10 00:41:15;;;;;;;4.00;1.60;;;;;;;27.03;46.98;98525.09;2086157;28;20091;-51
2022/09/10 00:42:17;;;;;;;2.53;1.35;;;;;;;27.01;46.70;98524.53;2084672;28;20299;-48
2022/09/10 00:43:20;;;;;;;2.35;0.90;;;;;;;27.02;46.73;98520.72;2085426;28;20045;-49
2022/09/10 00:44:59;;;;;;;2.33;1.23;;;;;;;27.01;47.04;98526.44;2082152;28;20052;-51
2022/09/10 00:46:00;;;;;;;5.75;1.20;;;;;;;26.96;46.68;98517.13;2084145;28;20510;-50
2022/09/10 00:47:02;;;;;;;3.17;1.33;;;;;;;26.98;47.00;98516.06;2083374;28;20056;-51
2022/09/10 00:48:06;;;;;;;2.75;1.05;;;;;;;27.01;46.82;98521.00;2084726;28;20044;-49
2022/09/10 00:49:14;;;;;;;5.80;1.45;;;;;;;26.99;47.02;98521.22;2084468;28;20092;-51
2022/09/10 00:50:20;;;;;;;4.00;0.90;;;;;;;26.99;46.74;98531.31;2084440;28;20166;-51
2022/09/10 00:51:22;;;;;;;3.40;1.42;;;;;;;26.98;46.75;98518.78;2084851;28;20152;-51
2022/09/10 00:52:23;;;;;;;3.28;1.13;;;;;;;27.00;47.04;98522.06;2085751;28;20052;-51
2022/09/10 00:53:28;;;;;;;4.82;1.63;;;;;;;27.01;46.85;98521.00;2083994;28;20433;-50
2022/09/10 00:54:32;;;;;;;2.97;1.13;;;;;;;27.01;47.18;98523.72;2083863;28;20060;-49
2022/09/10 00:55:35;;;;;;;3.90;1.83;;;;;;;27.01;47.08;98529.97;2084315;28;20053;-51
2022/09/10 00:56:36;;;;;;;5.82;1.35;;;;;;;27.01;47.06;98529.97;2086845;28;20063;-47
2022/09/10 00:57:39;;;;;;;2.83;1.10;;;;;;;27.01;46.79;98537.31;2082801;28;20856;-49
2022/09/10 00:58:42;;;;;;;2.28;0.73;;;;;;;27.02;46.83;98530.78;2085166;28;20045;-49
2022/09/10 00:59:48;;;;;;;3.38;1.45;;;;;;;27.00;47.22;98538.41;2085274;28;20044;-54
2022/09/10 01:00:53;;;;;;;7.50;2.22;;;;;;;26.96;47.21;98530.75;2084262;28;20101;-49
2022/09/10 01:01:55;;;;;;;3.78;1.17;;;;;;;27.00;46.90;98532.97;2084648;28;20036;-53
2022/09/10 01:02:57;;;;;;;3.28;1.35;;;;;;;26.96;47.12;98528.03;2083414;28;20052;-52
2022/09/10 01:04:00;;;;;;;5.20;0.98;;;;;;;26.97;47.11;98534.31;2084432;28;20057;-53
2022/09/10 01:05:03;;;;;;;3.25;0.90;;;;;;;26.99;46.93;98528.59;2080899;28;23046;-54
2022/09/10 01:06:06;;;;;;;2.08;1.15;;;;;;;26.99;47.27;98532.13;2082592;28;20045;-50
2022/09/10 01:07:09;;;;;;;3.65;0.95;;;;;;;26.99;47.40;98536.75;2083823;28;20882;-52
2022/09/10 01:08:13;;;;;;;2.05;1.00;;;;;;;26.99;47.11;98531.31;2084054;28;20041;-51
2022/09/10 01:09:14;;;;;;;5.20;1.58;;;;;;;27.00;47.00;98530.25;2081195;28;20048;-52
2022/09/10 01:10:21;;;;;;;4.95;1.60;;;;;;;27.00;46.87;98532.97;2084287;28;20048;-53
2022/09/10 01:11:41;;;;;;;3.67;0.90;;;;;;;26.98;46.87;98537.84;2085111;28;20113;-52
2022/09/10 01:12:58;;;;;;;6.07;2.00;;;;;;;26.97;46.95;98534.31;2084571;28;20045;-55
2022/09/10 01:14:12;;;;;;;1.92;0.80;;;;;;;26.93;47.27;98530.44;2084478;28;20072;-54
2022/09/10 01:15:27;;;;;;;3.83;1.33;;;;;;;26.96;46.91;98530.75;2083399;28;20075;-51
2022/09/10 01:16:38;;;;;;;2.15;0.73;;;;;;;26.95;47.35;98523.66;2088325;28;20041;-52
2022/09/10 01:17:54;;;;;;;2.97;1.10;;;;;;;26.94;47.08;98524.75;2083299;28;20053;-52
2022/09/10 01:19:06;;;;;;;2.15;1.00;;;;;;;26.94;47.25;98524.75;2081472;28;20053;-53
2022/09/10 01:20:50;;;;;;;3.13;0.77;;;;;;;26.90;47.58;98523.63;2083735;28;20052;-51
2022/09/10 01:22:04;;;;;;;2.80;1.10;;;;;;;26.91;47.43;98519.00;2084712;28;20089;-51
2022/09/10 01:23:30;;;;;;;3.97;1.10;;;;;;;26.91;47.38;98516.28;2083520;28;20076;-51
2022/09/10 01:24:54;;;;;;;4.05;1.13;;;;;;;26.90;47.30;98511.94;2082882;28;20057;-50
2022/09/10 01:26:08;;;;;;;5.60;1.67;;;;;;;26.92;47.17;98509.78;2084767;28;20056;-54
2022/09/10 01:27:36;;;;;;;3.80;1.23;;;;;;;26.86;47.23;98511.63;2084418;28;20094;-53
2022/09/10 01:28:43;;;;;;;7.15;1.10;;;;;;;26.89;47.14;98505.66;2082744;28;20044;-54
2022/09/10 01:29:49;;;;;;;1.85;1.05;;;;;;;26.88;47.37;98504.00;2084108;28;20048;-53
2022/09/10 01:30:58;;;;;;;2.47;0.73;;;;;;;26.93;47.55;98505.94;2081477;28;20053;-53
2022/09/10 01:32:05;;;;;;;4.55;1.73;;;;;;;26.94;47.50;98502.97;2083398;28;20127;-51
2022/09/10 01:33:12;;;;;;;3.22;1.67;;;;;;;26.92;47.31;98502.41;2082423;28;20106;-53
2022/09/10 01:34:19;;;;;;;1.27;0.88;;;;;;;26.95;47.46;98503.81;2084158;28;20462;-51
2022/09/10 01:35:27;;;;;;;2.72;1.08;;;;;;;26.92;47.37;98504.31;2083853;28;20067;-55
2022/09/10 01:36:34;;;;;;;3.00;1.35;;;;;;;26.88;47.55;98503.19;2085022;28;20052;-51
2022/09/10 01:37:39;;;;;;;4.43;1.20;;;;;;;26.90;47.79;98517.38;2084648;28;20855;-49
2022/09/10 01:38:40;;;;;;;4.13;1.50;;;;;;;26.90;47.38;98522.81;2082026;28;20102;-52
2022/09/10 01:39:42;;;;;;;5.90;1.45;;;;;;;26.92;47.51;98515.22;2083977;28;20441;-52
2022/09/10 01:40:45;;;;;;;5.20;0.93;;;;;;;26.95;47.17;98514.69;2086249;28;21040;-51
2022/09/10 01:41:47;;;;;;;3.80;1.10;;;;;;;26.96;47.28;98517.13;2085063;28;20079;-50
2022/09/10 01:42:50;;;;;;;7.18;1.67;;;;;;;26.97;47.21;98512.53;2081693;28;20049;-52
2022/09/10 01:43:51;;;;;;;4.90;1.30;;;;;;;26.95;47.41;98514.69;2083421;28;20048;-55
2022/09/10 01:44:54;;;;;;;4.00;1.00;;;;;;;26.97;47.48;98509.81;2082119;28;20048;-54
2022/09/10 01:46:12;;;;;;;4.82;1.38;;;;;;;26.95;47.36;98512.78;2082230;28;20053;-49
2022/09/10 01:47:26;;;;;;;2.80;0.95;;;;;;;26.92;47.24;98515.22;2083451;28;20098;-53
2022/09/10 01:48:42;;;;;;;2.63;1.15;;;;;;;26.92;47.39;98510.59;2083591;28;20462;-52
2022/09/10 01:49:57;;;;;;;4.07;1.13;;;;;;;26.91;47.46;98503.50;2083595;28;20145;-50
2022/09/10 01:51:07;;;;;;;2.72;0.88;;;;;;;26.91;47.54;98503.50;2084181;28;20057;-55
2022/09/10 01:52:24;;;;;;;3.60;0.95;;;;;;;26.90;47.35;98501.84;2092492;28;20059;-54
2022/09/10 01:53:46;;;;;;;1.25;0.98;;;;;;;26.87;47.33;98496.94;2083638;28;20055;-52
2022/09/10 01:55:02;;;;;;;4.28;1.48;;;;;;;26.87;47.58;98491.50;2092417;28;20053;-54
2022/09/10 01:56:17;;;;;;;4.05;2.17;;;;;;;26.84;47.49;98488.47;2090361;28;20056;-54
2022/09/10 01:57:26;;;;;;;5.07;1.33;;;;;;;26.87;47.60;98490.69;2091293;28;20056;-55
2022/09/10 01:58:33;;;;;;;1.75;1.42;;;;;;;26.90;47.27;98490.97;2089416;28;20044;-53
2022/09/10 01:59:42;;;;;;;4.65;1.20;;;;;;;26.90;47.77;98495.59;2089347;28;20527;-49
2022/09/10 02:00:50;;;;;;;2.80;0.80;;;;;;;26.91;47.88;98489.91;2090197;28;20059;-52
2022/09/10 02:01:57;;;;;;;3.13;0.90;;;;;;;26.91;47.75;98492.63;2092595;28;20067;-55
2022/09/10 02:03:04;;;;;;;2.45;1.10;;;;;;;26.87;47.85;98493.41;2091142;28;20523;-54
2022/09/10 02:04:08;;;;;;;3.90;1.13;;;;;;;26.91;47.49;98491.78;2090828;28;20048;-52
2022/09/10 02:05:11;;;;;;;2.88;1.40;;;;;;;26.91;47.79;98494.50;2092125;28;20056;-52
2022/09/10 02:06:15;;;;;;;2.67;1.00;;;;;;;26.92;47.34;98499.69;2089445;28;20422;-52
2022/09/10 02:07:21;;;;;;;6.28;1.10;;;;;;;26.91;47.56;98511.69;2091078;28;20084;-53
2022/09/10 02:08:29;;;;;;;2.28;0.90;;;;;;;26.89;47.71;98524.72;2091260;28;20052;-52
2022/09/10 02:09:32;;;;;;;4.18;1.10;;;;;;;26.92;47.53;98528.81;2091150;28;20135;-55
2022/09/10 02:10:33;;;;;;;3.80;1.38;;;;;;;26.91;47.59;98535.31;2091647;28;20085;-52
2022/09/10 02:11:46;;;;;;;5.15;1.10;;;;;;;26.90;47.53;98542.66;2091415;28;20058;-53
2022/09/10 02:12:46;;;;;;;4.63;1.45;;;;;;;26.86;47.74;98544.28;2094780;28;20508;-50
2022/09/10 02:13:50;;;;;;;2.05;0.95;;;;;;;26.88;47.62;98557.63;2093251;28;20105;-52
2022/09/10 02:14:54;;;;;;;9.77;1.13;;;;;;;26.85;47.87;98558.97;2090737;28;20105;-53
2022/09/10 02:15:56;;;;;;;3.65;1.05;;;;;;;26.80;47.86;98561.66;2090797;28;20048;-52
2022/09/10 02:16:59;;;;;;;2.63;0.88;;;;;;;26.77;48.03;98554.00;2086503;28;20049;-53
2022/09/10 02:18:01;;;;;;;5.35;1.48;;;;;;;26.77;47.89;98551.28;2090934;28;20045;-51
2022/09/10 02:19:03;;;;;;;2.60;1.30;;;;;;;26.75;48.14;98548.00;2091597;28;20048;-56
2022/09/10 02:20:07;;;;;;;2.15;0.93;;;;;;;26.75;47.82;98548.00;2092894;28;20048;-52
2022/09/10 02:21:09;;;;;;;5.10;1.10;;;;;;;26.68;48.27;98548.19;2090051;28;20073;-55
2022/09/10 02:22:11;;;;;;;4.22;1.52;;;;;;;26.71;48.37;98533.28;2093008;28;20139;-54
2022/09/10 02:23:12;;;;;;;4.90;1.90;;;;;;;26.68;48.09;98537.31;2092551;28;20044;-50
2022/09/10 02:24:14;;;;;;;3.50;1.20;;;;;;;26.70;47.92;98539.81;2086403;28;20072;-51
2022/09/10 02:25:15;;;;;;;9.40;1.50;;;;;;;26.70;48.20;98526.19;2093017;28;20105;-53
2022/09/10 02:26:16;;;;;;;4.00;1.02;;;;;;;26.76;47.93;98536.03;2090621;28;20106;-54
2022/09/10 02:27:18;;;;;;;4.00;1.13;;;;;;;26.79;47.82;98530.06;2091395;28;20083;-52
2022/09/10 02:28:19;;;;;;;3.38;1.15;;;;;;;26.79;48.21;98526.53;2091348;28;20761;-52
2022/09/10 02:29:22;;;;;;;3.40;1.58;;;;;;;26.81;47.61;98524.38;2090233;28;20051;-54
2022/09/10 02:30:23;;;;;;;3.42;0.93;;;;;;;26.79;48.15;98526.53;2091944;28;20052;-52
2022/09/10 02:31:25;;;;;;;4.00;1.50;;;;;;;26.76;47.93;98525.16;2090558;28;20047;-53
2022/09/10 02:32:26;;;;;;;1.48;0.75;;;;;;;26.79;48.28;98526.53;2091970;28;20059;-56
2022/09/10 02:33:28;;;;;;;2.30;0.90;;;;;;;26.79;47.95;98521.91;2090133;28;20051;-51
2022/09/10 02:34:29;;;;;;;3.60;0.90;;;;;;;26.79;48.04;98523.81;2091039;28;20044;-55
2022/09/10 02:35:31;;;;;;;2.45;1.20;;;;;;;26.82;48.22;98526.81;2090087;28;20847;-50
2022/09/10 02:36:32;;;;;;;5.10;1.30;;;;;;;26.83;48.06;98528.47;2090021;28;20048;-52
2022/09/10 02:37:34;;;;;;;4.32;0.60;;;;;;;26.81;48.28;98527.91;2090675;28;20067;-55
2022/09/10 02:38:35;;;;;;;4.82;1.08;;;;;;;26.80;48.03;98534.44;2091234;28;20067;-52
2022/09/10 02:39:36;;;;;;;4.78;1.00;;;;;;;26.82;48.48;98537.72;2089204;28;20171;-54
2022/09/10 02:40:38;;;;;;;3.58;1.25;;;;;;;26.81;48.33;98538.00;2092280;28;20112;-54
2022/09/10 02:41:40;;;;;;;4.68;1.13;;;;;;;26.79;48.51;98540.94;2092877;28;20621;-52
2022/09/10 02:42:45;;;;;;;4.20;1.35;;;;;;;26.80;48.27;98542.63;2089996;28;20048;-52
2022/09/10 02:43:46;;;;;;;2.92;0.80;;;;;;;26.82;47.95;98537.72;2091922;28;20048;-55
2022/09/10 02:44:49;;;;;;;8.85;1.63;;;;;;;26.82;48.38;98532.28;2085008;28;20048;-55
2022/09/10 02:45:51;;;;;;;3.47;1.40;;;;;;;26.80;48.20;98539.91;2085862;28;20048;-54
2022/09/10 02:46:52;;;;;;;5.75;1.00;;;;;;;26.84;48.28;98546.44;2090107;28;20059;-54
2022/09/10 02:47:53;;;;;;;1.55;0.95;;;;;;;26.84;48.35;98538.28;2091744;28;20051;-52
2022/09/10 02:48:54;;;;;;;7.10;1.83;;;;;;;26.82;48.30;98536.91;2091174;28;20047;-54
2022/09/10 02:49:56;;;;;;;4.93;1.00;;;;;;;26.81;48.40;98535.25;2090150;28;21920;-55
2022/09/10 02:50:57;;;;;;;7.45;1.17;;;;;;;26.83;48.17;98533.94;2090798;28;20109;-55
2022/09/10 02:51:58;;;;;;;5.35;1.10;;;;;;;26.83;48.62;98527.63;2092520;28;20121;-52
2022/09/10 02:53:00;;;;;;;5.88;2.13;;;;;;;26.82;48.39;98534.19;2090639;28;21106;-55
2022/09/10 02:54:01;;;;;;;4.95;2.05;;;;;;;26.83;48.15;98539.38;2094270;28;20056;-54
2022/09/10 02:55:03;;;;;;;6.10;2.45;;;;;;;26.85;48.50;98529.03;2090036;28;20052;-54
2022/09/10 02:56:06;;;;;;;7.25;2.03;;;;;;;26.84;48.10;98524.66;2091415;28;20162;-55
2022/09/10 02:57:07;;;;;;;6.28;1.38;;;;;;;26.82;48.59;98529.53;2090649;28;20044;-53
2022/09/10 02:58:08;;;;;;;3.47;1.40;;;;;;;26.84;48.36;98532.03;2092412;28;20795;-53
2022/09/10 02:59:09;;;;;;;5.30;0.80;;;;;;;26.84;48.29;98535.56;2091417;28;20128;-52
2022/09/10 03:00:13;;;;;;;6.57;1.42;;;;;;;26.85;48.36;98531.75;2091973;28;20105;-52
2022/09/10 03:01:17;;;;;;;2.63;1.15;;;;;;;26.82;48.41;98529.53;2090495;28;20044;-51
2022/09/10 03:02:19;;;;;;;6.25;1.08;;;;;;;26.84;48.08;98541.00;2091517;28;20396;-51
2022/09/10 03:03:19;;;;;;;4.35;1.10;;;;;;;26.85;48.24;98537.19;2091693;28;20051;-53
2022/09/10 03:04:21;;;;;;;4.07;1.30;;;;;;;26.85;48.24;98528.22;2091610;28;20336;-51
2022/09/10 03:05:21;;;;;;;4.45;1.00;;;;;;;26.84;48.67;98526.56;2091463;28;20052;-52
2022/09/10 03:06:25;;;;;;;3.08;0.90;;;;;;;26.84;48.20;98530.13;2090492;28;20775;-52
2022/09/10 03:07:25;;;;;;;3.47;1.63;;;;;;;26.84;48.56;98526.56;2093556;28;20056;-53
2022/09/10 03:08:27;;;;;;;3.00;0.93;;;;;;;26.84;48.11;98526.56;2092368;28;20048;-53
2022/09/10 03:09:28;;;;;;;7.63;2.05;;;;;;;26.85;48.39;98531.75;2089437;28;20051;-52
2022/09/10 03:10:30;;;;;;;3.20;1.20;;;;;;;26.86;48.34;98527.97;2094190;28;20112;-54
2022/09/10 03:11:31;;;;;;;3.13;1.10;;;;;;;26.84;48.59;98527.41;2092541;28;20135;-54
2022/09/10 03:12:33;;;;;;;2.67;1.13;;;;;;;26.86;48.56;98527.97;2093724;28;20055;-52
2022/09/10 03:13:34;;;;;;;6.10;1.73;;;;;;;26.81;48.53;98519.75;2093961;28;20056;-55
2022/09/10 03:14:36;;;;;;;1.77;0.88;;;;;;;26.81;48.55;98522.47;2094389;28;20567;-52
2022/09/10 03:15:38;;;;;;;4.82;1.30;;;;;;;26.83;48.24;98520.31;2092240;28;20098;-53
2022/09/10 03:16:40;;;;;;;1.23;0.77;;;;;;;26.83;48.49;98522.19;2092845;28;20526;-52
2022/09/10 03:17:40;;;;;;;3.03;0.98;;;;;;;26.85;48.76;98530.94;2094215;28;20108;-53
2022/09/10 03:18:43;;;;;;;3.17;1.00;;;;;;;26.85;48.39;98520.03;2090543;28;20049;-55
2022/09/10 03:19:43;;;;;;;3.75;1.73;;;;;;;26.86;48.63;98521.69;2088234;28;20040;-51
2022/09/10 03:20:45;;;;;;;3.25;1.27;;;;;;;26.86;48.68;98522.53;2093015;28;20052;-55
2022/09/10 03:21:46;;;;;;;3.78;0.95;;;;;;;26.87;48.72;98523.34;2091845;28;20126;-53
2022/09/10 03:22:48;;;;;;;4.72;1.27;;;;;;;26.87;48.51;98518.72;2094587;28;20531;-51
2022/09/10 03:23:51;;;;;;;2.15;0.80;;;;;;;26.87;48.64;98520.63;2089043;28;20080;-54
2022/09/10 03:24:53;;;;;;;7.25;1.17;;;;;;;26.85;48.44;98520.03;2090841;28;20053;-55
2022/09/10 03:25:55;;;;;;;2.10;0.85;;;;;;;26.85;48.55;98523.56;2091467;28;20040;-51
2022/09/10 03:26:56;;;;;;;4.38;1.02;;;;;;;26.86;48.17;98522.53;2091407;28;20049;-53
2022/09/10 03:27:58;;;;;;;6.15;1.13;;;;;;;26.87;48.30;98524.16;2092624;28;20064;-54
2022/09/10 03:29:00;;;;;;;3.55;1.35;;;;;;;26.87;48.50;98523.34;2092998;28;20060;-55
2022/09/10 03:30:02;;;;;;;3.58;0.80;;;;;;;26.86;48.43;98525.25;2093777;28;20079;-53
2022/09/10 03:31:05;;;;;;;3.45;0.95;;;;;;;26.87;48.36;98524.16;2093879;28;20101;-54
2022/09/10 03:32:06;;;;;;;3.65;1.50;;;;;;;26.86;48.34;98527.16;2095269;28;20052;-54
2022/09/10 03:33:07;;;;;;;4.65;1.05;;;;;;;26.86;48.45;98521.69;2095693;28;20044;-54
2022/09/10 03:34:10;;;;;;;5.75;1.20;;;;;;;26.87;48.54;98524.16;2091316;28;20210;-53
2022/09/10 03:35:12;;;;;;;5.07;1.35;;;;;;;26.87;48.27;98526.88;2093235;28;20044;-54
2022/09/10 03:36:14;;;;;;;4.07;1.40;;;;;;;26.87;48.30;98526.06;2092956;28;20714;-52
2022/09/10 03:37:15;;;;;;;3.22;1.00;;;;;;;26.86;48.44;98530.69;2095506;28;20052;-55
2022/09/10 03:38:17;;;;;;;5.40;1.42;;;;;;;26.87;48.22;98526.88;2095186;28;21122;-53
2022/09/10 03:39:18;;;;;;;2.30;1.05;;;;;;;26.86;48.35;98530.69;2092765;28;20083;-53
2022/09/10 03:40:20;;;;;;;3.97;1.23;;;;;;;26.88;48.59;98527.69;2094499;28;20056;-52
2022/09/10 03:41:20;;;;;;;3.22;1.20;;;;;;;26.88;48.35;98531.22;2092725;28;20488;-51
2022/09/10 03:42:22;;;;;;;4.32;1.30;;;;;;;26.86;48.44;98533.41;2093830;28;20048;-55
2022/09/10 03:43:23;;;;;;;4.35;1.35;;;;;;;26.87;48.23;98529.59;2092059;28;20057;-52
2022/09/10 03:44:25;;;;;;;2.58;1.08;;;;;;;26.87;48.59;98529.59;2089319;28;20053;-50
2022/09/10 03:45:25;;;;;;;4.38;1.02;;;;;;;26.85;48.65;98525.50;2090282;28;20052;-52
2022/09/10 03:46:28;;;;;;;3.00;1.40;;;;;;;26.87;48.48;98529.59;2092075;28;20136;-55
2022/09/10 03:47:30;;;;;;;5.07;1.80;;;;;;;26.85;48.63;98525.50;2094226;28;20373;-50
2022/09/10 03:48:31;;;;;;;2.75;1.10;;;;;;;26.85;48.65;98537.19;2094780;28;20064;-54
2022/09/10 03:49:32;;;;;;;6.60;1.38;;;;;;;26.85;48.49;98533.66;2093821;28;20041;-54
2022/09/10 03:50:34;;;;;;;2.58;0.77;;;;;;;26.83;48.78;98528.47;2094430;28;20495;-52
2022/09/10 03:51:35;;;;;;;2.80;1.23;;;;;;;26.81;48.93;98527.09;2095002;28;20048;-51
2022/09/10 03:52:36;;;;;;;3.50;0.88;;;;;;;26.82;48.62;98526.81;2094341;28;20051;-50
2022/09/10 03:53:37;;;;;;;1.38;0.60;;;;;;;26.81;48.72;98538.00;2093559;28;20128;-54
2022/09/10 03:54:39;;;;;;;2.47;1.10;;;;;;;26.80;48.88;98533.59;2092724;28;20126;-51
2022/09/10 03:55:42;;;;;;;2.03;1.15;;;;;;;26.81;48.68;98527.91;2089801;28;20052;-55
2022/09/10 03:56:44;;;;;;;2.78;0.88;;;;;;;26.79;49.00;98532.78;2090087;28;20052;-53
2022/09/10 03:57:45;;;;;;;2.83;0.82;;;;;;;26.83;48.72;98527.63;2094203;28;20248;-50
2022/09/10 03:58:47;;;;;;;0.88;0.73;;;;;;;26.81;48.90;98525.19;2087863;28;20110;-52
2022/09/10 03:59:48;;;;;;;2.20;0.93;;;;;;;26.81;48.46;98525.19;2094070;28;20062;-53
2022/09/10 04:00:51;;;;;;;1.83;1.35;;;;;;;26.83;48.83;98519.47;2084088;28;20066;-55
2022/09/10 04:01:53;;;;;;;2.58;1.83;;;;;;;26.80;48.94;98523.56;2092318;28;20781;-50
2022/09/10 04:02:55;;;;;;;2.15;1.02;;;;;;;26.81;48.64;98525.19;2090455;28;20047;-54
2022/09/10 04:03:57;;;;;;;3.20;1.33;;;;;;;26.80;48.54;98526.28;2092402;28;20052;-54
2022/09/10 04:04:58;;;;;;;4.40;1.30;;;;;;;26.80;48.96;98533.59;2091036;28;20056;-54
2022/09/10 04:05:59;;;;;;;2.40;1.00;;;;;;;26.77;48.72;98528.69;2093766;28;20048;-54
2022/09/10 04:07:01;;;;;;;4.55;1.23;;;;;;;26.77;48.82;98529.50;2086955;28;20049;-52
2022/09/10 04:08:02;;;;;;;1.98;1.00;;;;;;;26.77;48.83;98525.97;2088683;28;20052;-53
2022/09/10 04:09:04;;;;;;;2.22;0.93;;;;;;;26.75;49.03;98528.97;2091448;28;20049;-54
2022/09/10 04:10:05;;;;;;;3.42;1.00;;;;;;;26.76;48.70;98522.44;2094129;28;20052;-53
2022/09/10 04:11:07;;;;;;;3.22;1.02;;;;;;;26.78;48.66;98525.72;2094531;28;20045;-52
2022/09/10 04:12:08;;;;;;;3.08;1.63;;;;;;;26.75;48.99;98528.97;2092817;28;20060;-54
2022/09/10 04:13:10;;;;;;;3.55;1.55;;;;;;;26.75;48.64;98523.53;2092831;28;20059;-53
2022/09/10 04:14:11;;;;;;;2.92;0.98;;;;;;;26.76;48.75;98527.06;2092474;28;20129;-53
2022/09/10 04:15:13;;;;;;;3.65;1.08;;;;;;;26.74;48.61;98525.44;2094453;28;20113;-51
2022/09/10 04:16:14;;;;;;;1.83;1.00;;;;;;;26.72;48.95;98533.03;2091208;28;20051;-52
2022/09/10 04:17:17;;;;;;;2.78;0.98;;;;;;;26.70;48.63;98539.81;2090330;28;20056;-55
2022/09/10 04:18:19;;;;;;;3.83;0.93;;;;;;;26.72;48.57;98532.22;2093430;28;20102;-54
2022/09/10 04:19:20;;;;;;;5.55;1.02;;;;;;;26.70;48.96;98531.63;2092901;28;20072;-52
2022/09/10 04:20:22;;;;;;;2.22;1.30;;;;;;;26.72;48.55;98530.31;2094599;28;20040;-53
2022/09/10 04:21:24;;;;;;;1.77;0.80;;;;;;;26.72;49.08;98532.22;2092018;28;20058;-52
2022/09/10 04:22:26;;;;;;;4.28;1.25;;;;;;;26.70;48.97;98524.28;2090751;28;20044;-55
2022/09/10 04:23:29;;;;;;;4.82;1.52;;;;;;;26.71;48.91;98525.09;2089560;28;20052;-53
2022/09/10 04:24:29;;;;;;;2.17;0.90;;;;;;;26.71;48.69;98533.28;2088804;28;20636;-51
2022/09/10 04:25:32;;;;;;;2.65;1.23;;;;;;;26.69;48.99;98529.97;2093107;28;20147;-52
2022/09/10 04:26:33;;;;;;;4.10;1.15;;;;;;;26.71;48.98;98527.81;2093918;28;20678;-54
2022/09/10 04:27:35;;;;;;;5.28;1.17;;;;;;;26.70;48.79;98529.72;2095044;28;20055;-52
2022/09/10 04:28:35;;;;;;;2.88;0.80;;;;;;;26.69;48.58;98527.25;2089473;28;20725;-53
2022/09/10 04:29:37;;;;;;;2.97;1.05;;;;;;;26.70;48.73;98528.91;2091361;28;20141;-54
2022/09/10 04:30:39;;;;;;;4.55;1.13;;;;;;;26.73;48.55;98526.50;2088298;28;20769;-52
2022/09/10 04:31:41;;;;;;;5.05;1.13;;;;;;;26.72;48.57;98521.31;2092491;28;20141;-53
2022/09/10 04:32:43;;;;;;;3.70;1.70;;;;;;;26.73;48.93;98525.66;2092788;28;20575;-54
2022/09/10 04:33:45;;;;;;;3.40;1.05;;;;;;;26.69;49.10;98524.53;2094485;28;20040;-53
2022/09/10 04:34:46;;;;;;;4.40;1.15;;;;;;;26.69;48.68;98521.81;2091565;28;20496;-54
2022/09/10 04:35:48;;;;;;;2.65;0.95;;;;;;;26.69;48.99;98522.66;2092549;28;20048;-51
2022/09/10 04:36:48;;;;;;;2.40;0.90;;;;;;;26.70;48.69;98524.28;2088971;28;20105;-50
2022/09/10 04:37:50;;;;;;;4.03;1.38;;;;;;;26.68;48.68;98526.44;2090081;28;20060;-53
2022/09/10 04:38:51;;;;;;;1.73;0.70;;;;;;;26.71;48.63;98523.19;2091397;28;20054;-54
2022/09/10 04:39:53;;;;;;;2.10;1.10;;;;;;;26.70;48.92;98524.28;2092192;28;20844;-52
2022/09/10 04:40:53;;;;;;;2.92;0.77;;;;;;;26.69;49.03;98516.38;2093139;28;20049;-53
2022/09/10 04:41:55;;;;;;;1.33;1.05;;;;;;;26.70;48.85;98518.03;2092011;28;20048;-53
2022/09/10 04:42:56;;;;;;;5.45;1.60;;;;;;;26.68;49.11;98531.88;2091628;28;20940;-55
2022/09/10 04:43:58;;;;;;;3.97;1.08;;;;;;;26.70;48.57;98534.34;2093093;28;20060;-52
2022/09/10 04:44:59;;;;;;;4.32;1.02;;;;;;;26.70;48.97;98529.72;2090155;28;20052;-52
2022/09/10 04:46:00;;;;;;;3.95;0.75;;;;;;;26.72;48.75;98532.22;2092363;28;20134;-50
2022/09/10 04:47:01;;;;;;;3.67;1.05;;;;;;;26.68;49.07;98529.16;2092970;28;20567;-51
2022/09/10 04:48:05;;;;;;;3.53;0.80;;;;;;;26.68;48.87;98533.78;2091546;28;20048;-49
2022/09/10 04:49:06;;;;;;;1.67;0.90;;;;;;;26.69;48.69;98532.69;2093348;28;20460;-54
2022/09/10 04:50:09;;;;;;;3.50;1.02;;;;;;;26.70;48.69;98528.91;2091823;28;20052;-53
2022/09/10 04:51:12;;;;;;;2.00;1.02;;;;;;;26.72;49.00;98534.94;2094710;28;20048;-49
2022/09/10 04:52:16;;;;;;;4.20;1.10;;;;;;;26.70;48.99;98535.16;2093111;28;20052;-52
2022/09/10 04:53:17;;;;;;;1.27;0.85;;;;;;;26.68;48.77;98529.16;2092156;28;20052;-54
2022/09/10 04:54:18;;;;;;;1.33;0.82;;;;;;;26.68;48.78;98536.50;2090141;28;20660;-54
2022/09/10 04:55:19;;;;;;;5.57;0.93;;;;;;;26.68;49.07;98531.88;2092244;28;20139;-55
2022/09/10 04:56:21;;;;;;;2.55;1.00;;;;;;;26.69;49.13;98532.69;2091721;28;20047;-51
2022/09/10 04:57:23;;;;;;;2.35;1.10;;;;;;;26.66;49.16;98531.34;2091169;28;20053;-51
2022/09/10 04:58:25;;;;;;;2.83;1.00;;;;;;;26.67;49.05;98532.16;2090155;28;20118;-52
2022/09/10 04:59:26;;;;;;;2.42;0.77;;;;;;;26.66;48.86;98534.06;2092058;28;20561;-51
2022/09/10 05:00:28;;;;;;;4.03;1.13;;;;;;;26.66;48.97;98528.63;2093090;28;20040;-54